createdAt,value
2023-01-18T00:02:58.657Z,9.52
2023-01-18T00:06:02.381Z,10.32
2023-01-18T00:09:04.646Z,11.30
2023-01-18T00:12:06.958Z,9.38
2023-01-18T00:15:09.703Z,10.00
2023-01-18T00:18:12.520Z,10.32
2023-01-18T00:21:14.511Z,9.85
2023-01-18T00:24:16.552Z,9.52
2023-01-18T00:27:18.621Z,10.55
2023-01-18T00:30:23.248Z,9.13
2023-01-18T00:33:25.732Z,9.48
2023-01-18T00:36:27.652Z,9.75
2023-01-18T00:39:32.332Z,9.18
2023-01-18T00:42:52.811Z,8.32
2023-01-18T00:45:54.877Z,8.52
2023-01-18T00:48:59.106Z,8.65
2023-01-18T00:52:01.467Z,8.73
2023-01-18T00:55:06.876Z,8.00
2023-01-18T00:58:09.121Z,7.45
2023-01-18T01:01:12.547Z,8.57
2023-01-18T01:04:33.026Z,8.32
2023-01-18T01:07:35.153Z,8.30
2023-01-18T01:10:36.962Z,8.40
2023-01-18T01:13:57.857Z,8.80
2023-01-18T01:17:18.268Z,8.55
2023-01-18T01:20:40.572Z,8.60
2023-01-18T01:24:01.182Z,8.95
2023-01-18T01:27:03.277Z,8.65
2023-01-18T01:30:09.222Z,7.90
2023-01-18T01:33:11.857Z,9.23
2023-01-18T01:36:18.222Z,9.80
2023-01-18T01:39:20.370Z,9.80
2023-01-18T01:42:22.520Z,9.75
2023-01-18T01:45:39.279Z,9.48
2023-01-18T01:48:54.367Z,9.57
2023-01-18T01:55:40.989Z,8.45
2023-01-18T02:01:50.269Z,10.52
2023-01-18T02:04:57.908Z,10.25
2023-01-18T02:08:03.574Z,9.95
2023-01-18T02:11:14.970Z,10.73
2023-01-18T02:14:22.499Z,10.48
2023-01-18T02:17:43.334Z,10.48
2023-01-18T02:21:12.112Z,10.38
2023-01-18T02:24:46.306Z,10.77
2023-01-18T02:28:06.478Z,11.18
2023-01-18T02:31:19.850Z,10.23
2023-01-18T02:38:04.205Z,11.60
2023-01-18T02:41:15.767Z,10.77
2023-01-18T02:44:48.125Z,10.70
2023-01-18T02:47:57.725Z,11.20
2023-01-18T02:51:09.909Z,11.18
2023-01-18T02:54:24.243Z,11.00
2023-01-18T02:57:27.186Z,11.30
2023-01-18T03:00:30.133Z,11.93
2023-01-18T03:03:32.715Z,11.52
2023-01-18T03:06:35.609Z,10.10
2023-01-18T03:09:38.638Z,11.23
2023-01-18T03:12:57.437Z,11.15
2023-01-18T03:16:39.871Z,11.20
2023-01-18T03:20:06.622Z,10.68
2023-01-18T03:23:36.338Z,10.93
2023-01-18T03:26:47.145Z,10.73
2023-01-18T03:30:07.584Z,10.23
2023-01-18T03:33:28.742Z,10.38
2023-01-18T03:36:32.788Z,10.63
2023-01-18T03:39:36.639Z,10.68
2023-01-18T03:42:45.083Z,10.05
2023-01-18T03:45:49.851Z,10.15
2023-01-18T03:48:55.186Z,10.90
2023-01-18T03:52:03.266Z,10.40
2023-01-18T03:55:53.852Z,10.68
2023-01-18T03:59:16.975Z,10.77
2023-01-18T04:02:23.284Z,10.80
2023-01-18T04:05:26.031Z,10.00
2023-01-18T04:08:29.023Z,11.00
2023-01-18T04:11:34.480Z,11.00
2023-01-18T04:14:36.627Z,10.65
2023-01-18T04:17:39.944Z,10.00
2023-01-18T04:20:42.201Z,11.05
2023-01-18T04:23:44.310Z,11.35
2023-01-18T04:26:46.315Z,10.65
2023-01-18T04:29:55.202Z,10.82
2023-01-18T04:32:57.527Z,9.18
2023-01-18T04:35:59.979Z,9.88
2023-01-18T04:39:02.117Z,9.77
2023-01-18T04:42:04.479Z,10.40
2023-01-18T04:49:06.801Z,9.80
2023-01-18T04:52:14.398Z,10.30
2023-01-18T04:55:16.690Z,9.65
2023-01-18T04:58:21.834Z,10.37
2023-01-18T05:01:24.292Z,9.07
2023-01-18T05:04:26.652Z,8.60
2023-01-18T05:07:30.868Z,9.80
2023-01-18T05:10:35.410Z,9.65
2023-01-18T05:13:38.402Z,9.23
2023-01-18T05:16:40.757Z,9.43
2023-01-18T05:19:49.216Z,9.48
2023-01-18T05:22:55.049Z,8.88
2023-01-18T05:26:17.051Z,8.93
2023-01-18T05:33:16.149Z,9.30
2023-01-18T05:41:35.039Z,10.05
2023-01-18T05:45:51.040Z,9.40
2023-01-18T05:48:59.472Z,10.80
2023-01-18T05:56:54.668Z,10.88
2023-01-18T05:59:57.067Z,10.75
2023-01-18T06:03:42.036Z,11.43
2023-01-18T06:07:28.634Z,10.23
2023-01-18T06:10:51.509Z,11.10
2023-01-18T06:19:40.707Z,10.95
2023-01-18T06:23:50.847Z,10.18
2023-01-18T07:13:25.937Z,9.88
2023-01-18T07:20:55.961Z,10.13
2023-01-18T07:24:06.524Z,9.63
2023-01-18T07:27:35.285Z,10.77
2023-01-18T07:30:56.550Z,10.50
2023-01-18T07:34:35.529Z,10.18
2023-01-18T07:41:53.844Z,11.18
2023-01-18T07:45:13.231Z,11.98
2023-01-18T07:52:19.726Z,10.85
2023-01-18T07:56:07.066Z,11.02
2023-01-18T07:59:33.691Z,11.65
2023-01-18T08:41:46.688Z,11.93
2023-01-18T08:44:50.971Z,12.68
2023-01-18T08:48:04.912Z,11.85
2023-01-18T08:51:06.872Z,12.52
2023-01-18T08:54:58.460Z,13.50
2023-01-18T08:58:04.822Z,12.05
2023-01-18T09:01:28.771Z,11.73
2023-01-18T09:04:50.049Z,12.02
2023-01-18T09:08:03.140Z,12.00
2023-01-18T09:11:09.096Z,11.25
2023-01-18T09:14:32.589Z,12.40
2023-01-18T09:17:45.161Z,12.23
2023-01-18T09:21:21.095Z,11.73
2023-01-18T09:24:25.122Z,11.85
2023-01-18T09:27:35.002Z,12.55
2023-01-18T09:34:31.859Z,12.60
2023-01-18T09:42:24.331Z,11.55
2023-01-18T09:48:16.723Z,12.05
2023-01-18T10:03:51.919Z,11.30
2023-01-18T10:11:36.690Z,11.77
2023-01-18T11:27:18.443Z,10.85
2023-01-18T11:30:59.140Z,9.85
2023-01-18T11:35:20.372Z,10.15
2023-01-18T12:19:43.514Z,8.55
2023-01-18T12:27:20.755Z,9.05
2023-01-18T13:25:40.618Z,6.38
2023-01-18T14:34:16.681Z,4.18
2023-01-18T14:47:56.802Z,4.82
2023-01-18T15:01:27.339Z,4.30
2023-01-18T15:04:55.058Z,4.18
2023-01-18T15:08:24.332Z,3.60
2023-01-18T15:16:01.353Z,3.58
2023-01-18T15:19:04.369Z,3.63
2023-01-18T18:32:36.937Z,5.75
2023-01-18T18:37:02.952Z,6.07
2023-01-18T18:48:26.176Z,7.32
2023-01-18T19:05:42.948Z,6.65
2023-01-18T19:09:01.987Z,6.20
2023-01-18T19:16:59.698Z,6.32
2023-01-18T19:35:40.675Z,7.10
2023-01-18T19:39:50.248Z,6.70
2023-01-18T19:50:51.228Z,7.28
2023-01-18T21:36:23.177Z,8.05
2023-01-18T21:48:56.633Z,7.32
2023-01-18T21:52:25.253Z,6.93
2023-01-18T21:55:31.871Z,7.70
2023-01-18T21:58:52.260Z,7.55
2023-01-18T22:02:19.619Z,7.30
2023-01-18T22:10:02.643Z,9.40
2023-01-18T22:18:06.676Z,8.25
2023-01-18T22:58:24.208Z,7.60
2023-01-18T23:01:36.269Z,8.60
2023-01-18T23:05:55.077Z,7.82
2023-01-18T23:32:29.252Z,7.40
2023-01-18T23:35:45.432Z,6.90
2023-01-18T23:39:05.915Z,7.97
2023-01-18T23:42:27.061Z,7.43
2023-01-18T23:45:47.746Z,7.82
2023-01-18T23:49:08.310Z,7.05
2023-01-18T23:55:59.145Z,7.60
